Van Nuys Regional Airport Weather

KVNY 201201Z 25003KT 5SM -RA BR BKN022 BKN026 OVC038 09/09 A2980 RMK AO2 P0001 T00940094

KAPV 191256Z AUTO 05004KT 10SM FEW075 SCT090 BKN110 18/18 A2996 RMK AO2 SLP144 T01830178 $

KAVX 201201Z AUTO 23009KT 2SM BR SCT002 BKN006 OVC050 09/09 A2980 RMK AO2 T00940089 TSNO

KBFL 201154Z AUTO 09006KT 10SM -RA SCT055 OVC070 09/07 A2970 RMK AO2 RAB1056 SLP055 P0000 60002 70005 T00940067 10111 20094 58035

KBUR 201153Z 16007KT 7SM -RA FEW025 FEW032 OVC042 10/09 A2979 RMK AO2 SLP080 P0004 60006 70023 T01000089 10117 20100 58018

KCMA 201155Z 00000KT 4SM -RA BR OVC046 11/10 A2979 RMK AO2 SLP097 P0007 60018 70024 T01110100 10128 20111 56021

KCNO 201153Z AUTO 16004KT 7SM BKN060 OVC080 11/10 A2981 RMK AO2 RAB30E47 SLP092 P0000 60012 70085 T01110100 10122 20106 58021

KEMT 200259Z 00000KT 9SM SCT018 BKN040 BKN055 13/09 A2993

KFUL 201153Z AUTO 09003KT 6SM -RA BR FEW041 OVC055 12/12 A2979 RMK AO2 RAB21 SLP089 P0002 60011 70065 T01220117 10128 20117 58020

KHHR 201153Z AUTO 00000KT 10SM -RA FEW039 OVC050 12/11 A2981 RMK AO2 SLP093 P0005 60006 70054 T01170106 10133 20117 58016

KL35 201155Z AUTO 25007KT 1 1/2SM -SN OVC009 M01/M02 A2970 RMK AO2

KLAX 201153Z 14004KT 8SM -RA SCT025 BKN032 OVC060 12/11 A2980 RMK AO2 SLP089 P0009 60009 70045 T01170106 10133 20117 58018 $

KLGB 201153Z 00000KT 9SM -RA FEW030 BKN060 OVC070 12/10 A2980 RMK AO2 RAB15 SLP092 P0001 60007 70061 T01170100 10139 20117 58019

KONT 201153Z 17003KT 8SM -RA FEW005 OVC060 10/09 A2979 RMK AO2 RAB21 SLP086 P0000 60012 70063 T01000094 10106 20094 58014

KOXR 201151Z AUTO 05003KT 4SM -RA BR SCT024 SCT033 OVC055 12/10 A2979 RMK AO2 SLP088 P0009 60018 70025 T01170100 10139 20117 56022

KPMD 201153Z AUTO 25010G16KT 10SM -RA FEW029 BKN046 OVC065 08/04 A2970 RMK AO2 RAE1054B36 SLP051 P0000 60001 70008 T00780039 10089 20078 58029

KPOC 200447Z 26010KT 5SM BR BKN015 10/09 A2992

KRAL 201153Z AUTO 12003KT 10SM -RA FEW045 BKN075 OVC090 09/09 A2980 RMK AO2 RAE00B32 SLP082 P0000 60025 70073 T00940094 10106 20094 58019

KSMO 201151Z AUTO 00000KT 5SM -RA BR FEW035 OVC044 11/11 A2980 RMK AO2 SLP090 P0007 60008 70057 T01060106 10133 20106 58018

KSNA 201153Z AUTO 11006KT 10SM -RA OVC070 12/11 A2981 RMK AO2 RAB33 SLP093 P0000 60015 70073 T01170106 10144 20117 58020 $

KTOA 200348Z 26008KT 10SM BKN020 13/10 A2992 RMK LAST

KTRM 201152Z AUTO 29007KT 10SM BKN080 09/07 A2974 RMK AO2 SLP072 70008 T00940067 10144 20083 58014

KWHP 200350Z 00000KT 10SM OVC023 12/06 A2993 RMK LAST

KWJF 201156Z AUTO 24013KT 10SM SCT028 BKN037 OVC080 06/04 A2971 RMK AO2 RAB25E55 SLP065 P0001 60002 70028 T00610039 10083 20061 58024

How to read METARs

 

KVNY